createdAt,value
2022-11-29T00:02:17.507Z,101157.47
2022-11-29T00:04:44.055Z,101165.53
2022-11-29T00:07:11.774Z,101162.31
2022-11-29T00:09:38.158Z,101152.25
2022-11-29T00:12:04.548Z,101151.53
2022-11-29T00:14:30.850Z,101154.41
2022-11-29T00:16:58.235Z,101155.53
2022-11-29T00:19:24.612Z,101164.16
2022-11-29T00:21:51.158Z,101160.66
2022-11-29T00:24:19.177Z,101158.03
2022-11-29T00:26:45.550Z,101160.09
2022-11-29T00:29:11.901Z,101158.66
2022-11-29T00:31:38.468Z,101164.66
2022-11-29T00:34:04.779Z,101158.66
2022-11-29T00:36:31.085Z,101167.56
2022-11-29T00:38:57.481Z,101172.25
2022-11-29T00:41:25.185Z,101175.28
2022-11-29T00:43:51.459Z,101171.06
2022-11-29T00:46:17.920Z,101165.78
2022-11-29T00:48:44.261Z,101167.84
2022-11-29T00:51:10.832Z,101166.31
2022-11-29T00:53:37.445Z,101170.63
2022-11-29T00:56:04.567Z,101162.56
2022-11-29T00:58:32.543Z,101165.34
2022-11-29T01:00:58.954Z,101167.50
2022-11-29T01:03:25.284Z,101167.75
2022-11-29T01:05:52.032Z,101173.16
2022-11-29T01:08:18.618Z,101172.19
2022-11-29T01:10:44.919Z,101176.28
2022-11-29T01:13:11.680Z,101178.78
2022-11-29T01:15:39.410Z,101184.78
2022-11-29T01:18:05.704Z,101174.09
2022-11-29T01:20:32.026Z,101181.19
2022-11-29T01:22:58.315Z,101176.88
2022-11-29T01:25:24.589Z,101174.22
2022-11-29T01:27:50.895Z,101174.34
2022-11-29T01:30:17.283Z,101179.88
2022-11-29T01:32:44.940Z,101182.06
2022-11-29T01:35:11.247Z,101176.91
2022-11-29T01:37:37.514Z,101179.53
2022-11-29T01:40:04.203Z,101184.81
2022-11-29T01:42:30.522Z,101185.91
2022-11-29T01:45:01.702Z,101187.09
2022-11-29T01:47:28.307Z,101188.06
2022-11-29T01:49:56.043Z,101186.25
2022-11-29T01:52:23.914Z,101182.78
2022-11-29T01:54:52.320Z,101192.50
2022-11-29T01:57:19.602Z,101195.00
2022-11-29T01:59:48.297Z,101199.22
2022-11-29T02:02:15.941Z,101199.81
2022-11-29T02:04:43.713Z,101204.13
2022-11-29T02:07:11.561Z,101209.88
2022-11-29T02:09:37.887Z,101205.19
2022-11-29T02:12:13.177Z,101210.47
2022-11-29T02:14:57.360Z,101210.25
2022-11-29T02:17:28.602Z,101214.41
2022-11-29T02:20:13.390Z,101221.25
2022-11-29T02:22:45.627Z,101223.66
2022-11-29T02:25:24.162Z,101220.06
2022-11-29T02:28:21.833Z,101227.88
2022-11-29T02:30:58.468Z,101232.03
2022-11-29T02:33:43.462Z,101236.34
2022-11-29T02:36:24.713Z,101233.72
2022-11-29T02:39:03.275Z,101237.31
2022-11-29T02:41:40.350Z,101232.88
2022-11-29T02:44:21.560Z,101232.88
2022-11-29T02:46:54.571Z,101234.44
2022-11-29T02:49:27.431Z,101239.00
2022-11-29T02:51:58.654Z,101238.88
2022-11-29T02:54:27.759Z,101240.81
2022-11-29T02:56:56.600Z,101238.16
2022-11-29T02:59:30.522Z,101232.03
2022-11-29T03:02:01.297Z,101242.13
2022-11-29T03:04:31.691Z,101234.78
2022-11-29T03:07:04.068Z,101233.97
2022-11-29T03:09:35.255Z,101236.44
2022-11-29T03:12:07.626Z,101243.44
2022-11-29T03:14:42.535Z,101235.91
2022-11-29T03:17:17.144Z,101247.44
2022-11-29T03:19:55.387Z,101252.59
2022-11-29T03:22:28.483Z,101251.75
2022-11-29T03:25:01.487Z,101251.75
2022-11-29T03:27:34.763Z,101255.13
2022-11-29T03:30:03.304Z,101250.91
2022-11-29T03:32:33.163Z,101259.91
2022-11-29T03:35:02.104Z,101261.72
2022-11-29T03:37:37.706Z,101259.19
2022-11-29T03:40:05.487Z,101266.28
2022-11-29T03:42:34.256Z,101267.22
2022-11-29T03:45:04.771Z,101267.34
2022-11-29T03:47:35.123Z,101269.19
2022-11-29T03:50:04.063Z,101266.78
2022-11-29T03:52:35.343Z,101275.66
2022-11-29T03:55:08.875Z,101275.78
2022-11-29T03:57:38.922Z,101275.06
2022-11-29T04:00:06.859Z,101274.94
2022-11-29T04:02:54.013Z,101279.25
2022-11-29T04:05:44.295Z,101290.66
2022-11-29T04:08:28.309Z,101288.25
2022-11-29T04:11:05.334Z,101296.19
2022-11-29T04:13:42.077Z,101291.00
2022-11-29T04:16:34.706Z,101290.91
2022-11-29T04:19:16.971Z,101299.44
2022-11-29T04:21:59.071Z,101304.22
2022-11-29T04:24:46.575Z,101307.97
2022-11-29T04:27:22.553Z,101308.81
2022-11-29T04:30:00.513Z,101310.34
2022-11-29T04:32:38.524Z,101303.25
2022-11-29T04:35:18.470Z,101314.44
2022-11-29T04:37:55.060Z,101311.69
2022-11-29T04:40:27.471Z,101311.56
2022-11-29T04:43:06.538Z,101314.78
2022-11-29T04:45:47.277Z,101312.25
2022-11-29T04:48:24.038Z,101314.88
2022-11-29T04:50:56.324Z,101318.53
2022-11-29T04:53:28.531Z,101321.41
2022-11-29T04:55:58.910Z,101322.13
2022-11-29T04:58:31.726Z,101337.84
2022-11-29T05:01:01.256Z,101341.06
2022-11-29T05:03:34.960Z,101339.16
2022-11-29T05:06:07.992Z,101340.59
2022-11-29T05:08:43.011Z,101343.94
2022-11-29T05:11:14.036Z,101342.13
2022-11-29T05:13:45.747Z,101348.41
2022-11-29T05:16:20.567Z,101356.34
2022-11-29T05:18:57.829Z,101354.38
2022-11-29T05:21:27.763Z,101350.78
2022-11-29T05:23:59.489Z,101355.00
2022-11-29T05:26:29.155Z,101354.88
2022-11-29T05:29:01.535Z,101360.03
2022-11-29T05:31:45.758Z,101368.69
2022-11-29T05:34:21.383Z,101367.84
2022-11-29T05:36:52.728Z,101369.66
2022-11-29T05:39:27.772Z,101368.69
2022-11-29T05:42:06.166Z,101372.19
2022-11-29T05:44:36.644Z,101373.97
2022-11-29T05:47:04.106Z,101373.00
2022-11-29T05:49:36.076Z,101378.16
2022-11-29T05:52:13.555Z,101378.16
2022-11-29T05:54:44.322Z,101386.81
2022-11-29T05:57:14.499Z,101391.25
2022-11-29T05:59:43.762Z,101392.09
2022-11-29T06:02:17.687Z,101392.09
2022-11-29T06:04:55.966Z,101395.59
2022-11-29T06:07:24.497Z,101399.06
2022-11-29T06:10:00.515Z,101403.38
2022-11-29T06:12:28.698Z,101398.94
2022-11-29T06:15:04.589Z,101412.16
2022-11-29T06:17:41.238Z,101422.72
2022-11-29T06:20:28.535Z,101420.94
2022-11-29T06:23:07.715Z,101423.56
2022-11-29T06:25:43.045Z,101434.03
2022-11-29T06:28:21.621Z,101442.81
2022-11-29T06:30:54.234Z,101441.97
2022-11-29T06:33:22.553Z,101442.91
2022-11-29T06:35:51.980Z,101450.00
2022-11-29T06:38:22.261Z,101448.44
2022-11-29T06:40:48.826Z,101447.59
2022-11-29T06:43:15.569Z,101449.38
2022-11-29T06:45:47.708Z,101448.66
2022-11-29T06:48:19.134Z,101458.28
2022-11-29T06:50:51.084Z,101460.78
2022-11-29T06:53:22.227Z,101458.16
2022-11-29T06:55:52.619Z,101465.25
2022-11-29T06:58:35.979Z,101465.25
2022-11-29T07:01:07.184Z,101467.03
2022-11-29T07:03:44.797Z,101474.84
2022-11-29T07:06:14.445Z,101476.53
2022-11-29T07:08:40.775Z,101481.94
2022-11-29T07:11:09.214Z,101489.03
2022-11-29T07:13:35.737Z,101481.94
2022-11-29T07:16:03.832Z,101481.94
2022-11-29T07:18:34.064Z,101485.31
2022-11-29T07:21:08.143Z,101492.38
2022-11-29T07:23:35.437Z,101490.81
2022-11-29T07:26:08.068Z,101496.09
2022-11-29T07:28:41.611Z,101500.53
2022-11-29T07:31:11.358Z,101505.94
2022-11-29T07:33:42.411Z,101508.72
2022-11-29T07:36:14.286Z,101516.78
2022-11-29T07:38:49.555Z,101517.50
2022-11-29T07:41:20.906Z,101522.78
2022-11-29T07:43:51.879Z,101519.41
2022-11-29T07:46:18.194Z,101518.47
2022-11-29T07:48:44.501Z,101523.00
2022-11-29T07:51:12.213Z,101521.31
2022-11-29T07:53:41.024Z,101522.16
2022-11-29T07:56:07.555Z,101521.31
2022-11-29T07:58:33.909Z,101518.47
2022-11-29T08:01:00.291Z,101513.88
2022-11-29T08:03:26.639Z,101515.56
2022-11-29T08:05:53.110Z,101517.50
2022-11-29T08:08:20.723Z,101520.16
2022-11-29T08:10:47.128Z,101522.53
2022-11-29T08:13:13.439Z,101531.31
2022-11-29T08:15:43.743Z,101529.50
2022-11-29T08:18:10.051Z,101540.06
2022-11-29T08:20:36.347Z,101525.78
2022-11-29T08:23:02.626Z,101534.56
2022-11-29T08:25:30.276Z,101536.25
2022-11-29T08:27:56.756Z,101535.63
2022-11-29T08:30:23.077Z,101537.53
2022-11-29T08:32:51.552Z,101542.81
2022-11-29T08:35:19.069Z,101545.47
2022-11-29T08:37:45.377Z,101546.19
2022-11-29T08:40:14.248Z,101557.59
2022-11-29T08:42:41.920Z,101554.22
2022-11-29T08:45:08.998Z,101551.72
2022-11-29T08:47:35.355Z,101563.22
2022-11-29T08:50:01.853Z,101560.38
2022-11-29T08:52:28.499Z,101562.91
2022-11-29T08:54:58.805Z,101559.41
2022-11-29T08:57:43.418Z,101568.78
2022-11-29T09:00:12.099Z,101566.16
2022-11-29T09:02:38.505Z,101567.09
2022-11-29T09:05:05.365Z,101574.09
2022-11-29T09:07:31.753Z,101573.81
2022-11-29T09:09:58.100Z,101584.28
2022-11-29T09:12:24.424Z,101578.78
2022-11-29T09:14:50.723Z,101577.47
2022-11-29T09:17:18.427Z,101575.66
2022-11-29T09:19:44.686Z,101579.28
2022-11-29T09:22:11.005Z,101579.97
2022-11-29T09:24:37.321Z,101576.50
2022-11-29T09:27:03.649Z,101586.09
2022-11-29T09:29:29.920Z,101590.44
2022-11-29T09:31:56.266Z,101592.00
2022-11-29T09:34:24.032Z,101595.28
2022-11-29T09:36:50.308Z,101595.16
2022-11-29T09:39:16.659Z,101597.81
2022-11-29T09:41:58.096Z,101600.31
2022-11-29T09:44:30.479Z,101605.59
2022-11-29T09:47:00.507Z,101610.44
2022-11-29T09:49:44.588Z,101612.13
2022-11-29T09:52:16.251Z,101608.75
2022-11-29T09:54:45.684Z,101611.03
2022-11-29T09:57:12.587Z,101605.25
2022-11-29T09:59:41.874Z,101613.31
2022-11-29T10:02:20.911Z,101614.03
2022-11-29T10:04:51.918Z,101618.16
2022-11-29T10:07:20.913Z,101622.59
2022-11-29T10:09:50.264Z,101606.34
2022-11-29T10:12:18.797Z,101615.00
2022-11-29T10:14:48.460Z,101615.97
2022-11-29T10:17:23.667Z,101618.16
2022-11-29T10:19:52.714Z,101622.59
2022-11-29T10:22:21.795Z,101620.78
2022-11-29T10:24:49.926Z,101621.84
2022-11-29T10:27:20.341Z,101627.50
2022-11-29T10:29:46.898Z,101620.91
2022-11-29T10:32:13.912Z,101629.91
2022-11-29T10:34:40.887Z,101625.22
2022-11-29T10:37:12.869Z,101627.50
2022-11-29T10:39:41.674Z,101623.88
2022-11-29T10:42:12.911Z,101619.84
2022-11-29T10:44:39.180Z,101624.63
2022-11-29T10:47:10.710Z,101612.59
2022-11-29T10:49:37.649Z,101616.81
2022-11-29T10:52:04.002Z,101618.16
2022-11-29T10:54:36.908Z,101621.25
2022-11-29T10:57:08.410Z,101620.78
2022-11-29T10:59:34.678Z,101617.66
2022-11-29T11:02:01.718Z,101619.81
2022-11-29T11:04:29.321Z,101620.28
2022-11-29T11:06:56.739Z,101616.69
2022-11-29T11:09:27.877Z,101615.13
2022-11-29T11:11:57.043Z,101615.38
2022-11-29T11:14:24.175Z,101621.03
2022-11-29T11:16:51.105Z,101621.03
2022-11-29T11:19:24.722Z,101620.53
2022-11-29T11:21:51.263Z,101615.97
2022-11-29T11:24:22.992Z,101612.88
2022-11-29T11:26:49.321Z,101623.06
2022-11-29T11:29:18.009Z,101623.19
2022-11-29T11:31:51.347Z,101622.97
2022-11-29T11:34:23.672Z,101627.06
2022-11-29T11:36:50.052Z,101631.50
2022-11-29T11:39:19.618Z,101630.16
2022-11-29T11:41:46.744Z,101639.06
2022-11-29T11:47:17.653Z,101645.47
2022-11-29T11:49:48.218Z,101643.28
2022-11-29T11:52:18.799Z,101648.91
2022-11-29T11:54:45.433Z,101641.97
2022-11-29T11:57:16.083Z,101634.59
2022-11-29T11:59:47.560Z,101645.69
2022-11-29T12:02:24.164Z,101652.41
2022-11-29T12:04:52.065Z,101653.16
2022-11-29T12:07:44.988Z,101656.84
2022-11-29T12:10:16.173Z,101656.31
2022-11-29T12:12:43.310Z,101655.69
2022-11-29T12:15:15.607Z,101659.31
2022-11-29T12:17:47.304Z,101660.03
2022-11-29T12:20:20.229Z,101668.31
2022-11-29T12:22:50.846Z,101666.88
2022-11-29T12:25:19.508Z,101668.69
2022-11-29T12:27:45.825Z,101670.38
2022-11-29T12:30:14.707Z,101677.38
2022-11-29T12:32:51.229Z,101675.28
2022-11-29T12:35:28.154Z,101676.97
2022-11-29T12:37:58.502Z,101682.16
2022-11-29T12:40:31.148Z,101681.09
2022-11-29T12:43:01.410Z,101691.28
2022-11-29T12:45:35.552Z,101692.75
2022-11-29T12:48:06.669Z,101694.22
2022-11-29T12:50:39.036Z,101698.91
2022-11-29T12:53:13.382Z,101697.81
2022-11-29T12:55:47.112Z,101703.22
2022-11-29T12:58:18.175Z,101712.25
2022-11-29T13:00:51.782Z,101708.16
2022-11-29T13:03:21.815Z,101703.22
2022-11-29T13:05:54.554Z,101701.66
2022-11-29T13:08:36.778Z,101700.44
2022-11-29T13:11:08.955Z,101705.03
2022-11-29T13:13:39.320Z,101707.44
2022-11-29T13:16:15.836Z,101710.66
2022-11-29T13:18:50.434Z,101709.09
2022-11-29T13:21:19.173Z,101710.91
2022-11-29T13:26:36.483Z,101714.75
2022-11-29T13:29:03.700Z,101714.75
2022-11-29T13:31:32.314Z,101714.50
2022-11-29T13:34:01.520Z,101719.78
2022-11-29T13:36:42.446Z,101724.25
2022-11-29T13:39:13.538Z,101718.72
2022-11-29T13:41:41.594Z,101724.47
2022-11-29T13:44:11.588Z,101727.97
2022-11-29T13:46:46.831Z,101727.34
2022-11-29T13:49:20.536Z,101730.16
2022-11-29T13:51:47.359Z,101727.59
2022-11-29T13:54:26.048Z,101726.50
2022-11-29T13:57:00.771Z,101731.81
2022-11-29T13:59:28.122Z,101730.59
2022-11-29T14:01:56.153Z,101737.22
2022-11-29T14:04:24.544Z,101740.56
2022-11-29T14:07:01.094Z,101736.63
2022-11-29T14:09:28.908Z,101734.72
2022-11-29T14:11:59.721Z,101737.94
2022-11-29T14:14:28.630Z,101739.16
2022-11-29T14:16:58.190Z,101736.84
2022-11-29T14:19:28.804Z,101738.16
2022-11-29T14:22:17.015Z,101748.00
2022-11-29T14:24:54.598Z,101735.41
2022-11-29T14:27:39.679Z,101742.34
2022-11-29T14:30:21.113Z,101753.41
2022-11-29T14:32:56.478Z,101747.06
2022-11-29T14:35:30.354Z,101747.53
2022-11-29T14:38:02.553Z,101755.84
2022-11-29T14:40:31.278Z,101752.47
2022-11-29T14:42:57.946Z,101748.75
2022-11-29T14:45:26.309Z,101748.47
2022-11-29T14:47:54.067Z,101750.53
2022-11-29T14:50:31.489Z,101751.97
2022-11-29T14:53:00.250Z,101754.50
2022-11-29T14:55:31.091Z,101751.09
2022-11-29T14:58:12.290Z,101753.06
2022-11-29T15:00:43.259Z,101763.38
2022-11-29T15:03:12.849Z,101761.47
2022-11-29T15:05:41.413Z,101771.94
2022-11-29T15:08:09.189Z,101768.78
2022-11-29T15:10:37.300Z,101771.06
2022-11-29T15:13:04.016Z,101770.44
2022-11-29T15:15:36.051Z,101780.91
2022-11-29T15:18:06.347Z,101773.81
2022-11-29T15:20:39.015Z,101779.00
2022-11-29T15:23:07.759Z,101781.63
2022-11-29T15:25:34.460Z,101783.53
2022-11-29T15:28:01.466Z,101784.53
2022-11-29T15:30:29.269Z,101783.69
2022-11-29T15:32:55.892Z,101787.44
2022-11-29T15:35:22.647Z,101785.38
2022-11-29T15:37:51.625Z,101784.16
2022-11-29T15:40:19.534Z,101783.53
2022-11-29T15:42:47.630Z,101781.84
2022-11-29T15:45:28.797Z,101777.41
2022-11-29T15:47:55.564Z,101778.16
2022-11-29T15:50:25.488Z,101784.28
2022-11-29T15:52:54.455Z,101777.31
2022-11-29T15:55:20.918Z,101780.69
2022-11-29T15:57:48.906Z,101783.94
2022-11-29T16:00:16.457Z,101781.31
2022-11-29T16:02:46.199Z,101794.38
2022-11-29T16:05:16.003Z,101794.38
2022-11-29T16:07:43.229Z,101793.44
2022-11-29T16:10:14.437Z,101804.63
2022-11-29T16:12:50.244Z,101794.69
2022-11-29T16:15:24.750Z,101787.06
2022-11-29T16:17:51.881Z,101792.47
2022-11-29T16:20:21.010Z,101788.75
2022-11-29T16:22:47.299Z,101792.25
2022-11-29T16:25:16.540Z,101790.78
2022-11-29T16:27:43.269Z,101794.16
2022-11-29T16:30:19.844Z,101795.38
2022-11-29T16:32:49.792Z,101803.31
2022-11-29T16:35:18.780Z,101796.22
2022-11-29T16:37:45.797Z,101798.03
2022-11-29T16:40:21.791Z,101800.78
2022-11-29T16:43:05.101Z,101803.31
2022-11-29T16:45:33.135Z,101804.84
2022-11-29T16:47:59.910Z,101804.28
2022-11-29T16:50:27.002Z,101803.41
2022-11-29T16:52:56.754Z,101807.88
2022-11-29T16:55:24.841Z,101815.53
2022-11-29T16:57:51.162Z,101813.16
2022-11-29T17:00:28.422Z,101813.16
2022-11-29T17:02:54.716Z,101818.66
2022-11-29T17:05:21.001Z,101811.69
2022-11-29T17:07:47.742Z,101812.41
2022-11-29T17:10:16.801Z,101813.38
2022-11-29T17:12:48.000Z,101814.34
2022-11-29T17:15:14.802Z,101817.09
2022-11-29T17:17:41.944Z,101819.84
2022-11-29T17:20:08.523Z,101810.09
2022-11-29T17:22:34.831Z,101809.25
2022-11-29T17:25:01.157Z,101803.28
2022-11-29T17:27:27.446Z,101809.94
2022-11-29T17:29:55.113Z,101808.63
2022-11-29T17:32:26.538Z,101808.09
2022-11-29T17:34:53.240Z,101808.56
2022-11-29T17:37:19.524Z,101816.81
2022-11-29T17:39:46.201Z,101818.22
2022-11-29T17:42:12.634Z,101820.34
2022-11-29T17:44:38.900Z,101829.56
2022-11-29T17:47:06.566Z,101839.50
2022-11-29T17:49:32.840Z,101837.22
2022-11-29T17:51:59.118Z,101831.78
2022-11-29T17:54:25.417Z,101832.31
2022-11-29T17:56:52.006Z,101845.44
2022-11-29T17:59:18.605Z,101848.19
2022-11-29T18:01:45.118Z,101839.31
2022-11-29T18:04:12.853Z,101839.41
2022-11-29T18:06:40.041Z,101845.66
2022-11-29T18:09:07.331Z,101850.19
2022-11-29T18:11:43.276Z,101843.84
2022-11-29T18:14:14.010Z,101853.34
2022-11-29T18:16:40.347Z,101856.00
2022-11-29T18:19:07.366Z,101852.50
2022-11-29T18:21:35.351Z,101855.91
2022-11-29T18:24:02.439Z,101855.75
2022-11-29T18:26:29.807Z,101861.69
2022-11-29T18:28:57.738Z,101867.19
2022-11-29T18:31:24.772Z,101857.59
2022-11-29T18:33:52.482Z,101870.91
2022-11-29T18:36:20.019Z,101865.72
2022-11-29T18:38:48.048Z,101861.50
2022-11-29T18:41:16.119Z,101864.13
2022-11-29T18:43:42.565Z,101862.97
2022-11-29T18:46:09.481Z,101867.03
2022-11-29T18:48:36.018Z,101858.09
2022-11-29T18:51:02.619Z,101867.63
2022-11-29T18:53:28.963Z,101871.44
2022-11-29T18:56:00.836Z,101869.81
2022-11-29T18:58:27.146Z,101865.63
2022-11-29T19:00:53.494Z,101858.63
2022-11-29T19:03:19.925Z,101872.81
2022-11-29T19:05:49.763Z,101864.59
2022-11-29T19:08:16.049Z,101868.38
2022-11-29T19:10:42.373Z,101873.88
2022-11-29T19:13:10.024Z,101872.47
2022-11-29T19:15:36.358Z,101880.00
2022-11-29T19:18:02.638Z,101889.63
2022-11-29T19:20:28.987Z,101886.88
2022-11-29T19:23:00.270Z,101886.03
2022-11-29T19:25:26.968Z,101887.00
2022-11-29T19:27:53.262Z,101894.59
2022-11-29T19:30:20.876Z,101885.47
2022-11-29T19:32:47.169Z,101888.78
2022-11-29T19:35:13.465Z,101886.97
2022-11-29T19:37:39.778Z,101886.78
2022-11-29T19:40:07.006Z,101893.97
2022-11-29T19:42:33.373Z,101893.34
2022-11-29T19:47:47.331Z,101891.63
2022-11-29T19:50:13.641Z,101884.56
2022-11-29T19:52:39.906Z,101891.41
2022-11-29T19:55:06.356Z,101893.84
2022-11-29T19:57:32.634Z,101896.31
2022-11-29T19:59:58.908Z,101896.50
2022-11-29T20:02:25.269Z,101900.00
2022-11-29T20:04:53.024Z,101900.38
2022-11-29T20:07:19.353Z,101900.94
2022-11-29T20:09:45.923Z,101904.53
2022-11-29T20:12:12.455Z,101904.72
2022-11-29T20:14:38.734Z,101909.06
2022-11-29T20:17:05.217Z,101902.72
2022-11-29T20:19:31.625Z,101905.69
2022-11-29T20:21:59.234Z,101902.19
2022-11-29T20:24:25.543Z,101904.72
2022-11-29T20:26:51.867Z,101910.66
2022-11-29T20:29:18.243Z,101910.88
2022-11-29T20:31:50.162Z,101915.19
2022-11-29T20:34:17.278Z,101909.81
2022-11-29T20:36:50.808Z,101908.75
2022-11-29T20:39:23.174Z,101910.75
2022-11-29T20:41:57.081Z,101907.66
2022-11-29T20:44:30.292Z,101914.44
2022-11-29T20:46:56.865Z,101917.72
2022-11-29T20:49:23.363Z,101920.38
2022-11-29T20:51:52.070Z,101925.41
2022-11-29T20:54:19.921Z,101922.00
2022-11-29T20:56:46.329Z,101921.19
2022-11-29T20:59:12.641Z,101932.03
2022-11-29T21:01:39.000Z,101933.00
2022-11-29T21:04:05.466Z,101930.59
2022-11-29T21:06:31.811Z,101932.63
2022-11-29T21:08:58.095Z,101930.19
2022-11-29T21:11:26.115Z,101931.34
2022-11-29T21:13:52.708Z,101938.44
2022-11-29T21:16:26.393Z,101938.78
2022-11-29T21:18:54.175Z,101931.91
2022-11-29T21:21:24.582Z,101935.69
2022-11-29T21:23:55.454Z,101929.16
2022-11-29T21:26:25.190Z,101939.63
2022-11-29T21:28:56.946Z,101939.19
2022-11-29T21:31:23.596Z,101941.84
2022-11-29T21:33:50.143Z,101931.59
2022-11-29T21:36:16.819Z,101930.22
2022-11-29T21:38:43.112Z,101924.06
2022-11-29T21:41:09.425Z,101929.47
2022-11-29T21:44:04.969Z,101923.34
2022-11-29T21:46:23.375Z,101931.06
2022-11-29T21:48:49.637Z,101928.41
2022-11-29T21:51:15.947Z,101929.34
2022-11-29T21:53:42.260Z,101925.88
2022-11-29T21:56:09.667Z,101926.41
2022-11-29T21:58:37.075Z,101931.44
2022-11-29T22:01:07.391Z,101928.31
2022-11-29T22:03:35.068Z,101936.13
2022-11-29T22:06:02.333Z,101930.50
2022-11-29T22:08:28.623Z,101941.31
2022-11-29T22:10:59.532Z,101942.25
2022-11-29T22:13:25.856Z,101937.69
2022-11-29T22:15:52.172Z,101942.38
2022-11-29T22:18:18.509Z,101939.84
2022-11-29T22:20:46.187Z,101941.41
2022-11-29T22:23:12.472Z,101940.69
2022-11-29T22:25:38.785Z,101941.72
2022-11-29T22:28:05.106Z,101938.34
2022-11-29T22:30:31.383Z,101938.53
2022-11-29T22:32:57.685Z,101934.34
2022-11-29T22:35:23.971Z,101934.66
2022-11-29T22:37:51.628Z,101934.53
2022-11-29T22:40:17.950Z,101928.59
2022-11-29T22:42:44.259Z,101935.50
2022-11-29T22:45:10.934Z,101933.06
2022-11-29T22:47:37.219Z,101940.56
2022-11-29T22:50:03.726Z,101942.25
2022-11-29T22:52:30.079Z,101930.53
2022-11-29T22:55:02.898Z,101945.22
2022-11-29T22:57:30.949Z,101939.09
2022-11-29T22:59:57.239Z,101938.25
2022-11-29T23:02:23.572Z,101944.56
2022-11-29T23:04:49.909Z,101947.44
2022-11-29T23:07:16.169Z,101954.41
2022-11-29T23:09:42.467Z,101949.09
2022-11-29T23:12:10.114Z,101949.09
2022-11-29T23:14:36.442Z,101943.19
2022-11-29T23:17:02.725Z,101941.41
2022-11-29T23:19:29.037Z,101950.28
2022-11-29T23:21:55.341Z,101951.88
2022-11-29T23:24:21.657Z,101945.31
2022-11-29T23:26:47.937Z,101952.84
2022-11-29T23:29:16.477Z,101948.59
2022-11-29T23:31:42.852Z,101952.50
2022-11-29T23:34:09.673Z,101951.44
2022-11-29T23:36:36.003Z,101946.81
2022-11-29T23:39:02.304Z,101955.28
2022-11-29T23:41:28.631Z,101954.19
2022-11-29T23:43:55.042Z,101954.84
2022-11-29T23:46:23.525Z,101951.66
2022-11-29T23:48:49.870Z,101951.44
2022-11-29T23:51:16.215Z,101948.91
2022-11-29T23:53:42.699Z,101954.00
2022-11-29T23:56:11.959Z,101948.06
2022-11-29T23:58:38.619Z,101953.34
